sensor_id;sensor_type;location;lat;lon;timestamp;pressure;altitude;pressure_sealevel;temperature
14023;BMP180;7086;48.116;11.580;2023-03-04T00:01:33;95483.00;;;6.80
14023;BMP180;7086;48.116;11.580;2023-03-04T00:04:14;95462.00;;;6.80
14023;BMP180;7086;48.116;11.580;2023-03-04T00:06:49;95501.00;;;6.20
14023;BMP180;7086;48.116;11.580;2023-03-04T00:09:19;95603.00;;;6.70
14023;BMP180;7086;48.116;11.580;2023-03-04T00:11:47;95611.00;;;6.70
14023;BMP180;7086;48.116;11.580;2023-03-04T00:14:20;95483.00;;;6.30
14023;BMP180;7086;48.116;11.580;2023-03-04T00:16:59;95600.00;;;6.60
14023;BMP180;7086;48.116;11.580;2023-03-04T00:19:29;95610.00;;;6.10
14023;BMP180;7086;48.116;11.580;2023-03-04T00:21:57;95607.00;;;6.60
14023;BMP180;7086;48.116;11.580;2023-03-04T00:24:25;95603.00;;;6.50
14023;BMP180;7086;48.116;11.580;2023-03-04T00:26:55;95615.00;;;6.50
14023;BMP180;7086;48.116;11.580;2023-03-04T00:29:36;95518.00;;;6.40
14023;BMP180;7086;48.116;11.580;2023-03-04T00:32:09;95607.00;;;6.50
14023;BMP180;7086;48.116;11.580;2023-03-04T00:34:37;95526.00;;;6.40
14023;BMP180;7086;48.116;11.580;2023-03-04T00:37:08;95610.00;;;6.40
14023;BMP180;7086;48.116;11.580;2023-03-04T00:39:40;95603.00;;;6.40
14023;BMP180;7086;48.116;11.580;2023-03-04T00:42:10;95615.00;;;6.40
14023;BMP180;7086;48.116;11.580;2023-03-04T00:44:43;95526.00;;;6.20
14023;BMP180;7086;48.116;11.580;2023-03-04T00:47:14;95620.00;;;6.40
14023;BMP180;7086;48.116;11.580;2023-03-04T00:49:54;95609.00;;;6.30
14023;BMP180;7086;48.116;11.580;2023-03-04T00:52:29;95621.00;;;6.30
14023;BMP180;7086;48.116;11.580;2023-03-04T00:55:05;95514.00;;;6.20
14023;BMP180;7086;48.116;11.580;2023-03-04T00:57:33;95609.00;;;6.30
14023;BMP180;7086;48.116;11.580;2023-03-04T01:00:03;95614.00;;;6.30
14023;BMP180;7086;48.116;11.580;2023-03-04T01:02:31;95607.00;;;6.30
14023;BMP180;7086;48.116;11.580;2023-03-04T01:04:58;95606.00;;;6.30
14023;BMP180;7086;48.116;11.580;2023-03-04T01:07:26;95605.00;;;6.20
14023;BMP180;7086;48.116;11.580;2023-03-04T01:09:56;95652.00;;;6.20
14023;BMP180;7086;48.116;11.580;2023-03-04T01:12:24;95599.00;;;6.20
14023;BMP180;7086;48.116;11.580;2023-03-04T01:14:51;95590.00;;;6.20
14023;BMP180;7086;48.116;11.580;2023-03-04T01:17:21;95575.00;;;6.00
14023;BMP180;7086;48.116;11.580;2023-03-04T01:19:49;95592.00;;;6.20
14023;BMP180;7086;48.116;11.580;2023-03-04T01:22:17;95590.00;;;6.20
14023;BMP180;7086;48.116;11.580;2023-03-04T01:24:47;95558.00;;;5.60
14023;BMP180;7086;48.116;11.580;2023-03-04T01:27:17;95558.00;;;6.10
14023;BMP180;7086;48.116;11.580;2023-03-04T01:29:52;95590.00;;;6.10
14023;BMP180;7086;48.116;11.580;2023-03-04T01:32:22;95476.00;;;6.10
14023;BMP180;7086;48.116;11.580;2023-03-04T01:34:50;95591.00;;;6.10
14023;BMP180;7086;48.116;11.580;2023-03-04T01:37:18;95583.00;;;6.10
14023;BMP180;7086;48.116;11.580;2023-03-04T01:39:46;95581.00;;;6.10
14023;BMP180;7086;48.116;11.580;2023-03-04T01:42:19;95616.00;;;5.90
14023;BMP180;7086;48.116;11.580;2023-03-04T01:44:48;95580.00;;;5.60
14023;BMP180;7086;48.116;11.580;2023-03-04T01:47:18;95522.00;;;6.10
14023;BMP180;7086;48.116;11.580;2023-03-04T01:49:53;95558.00;;;6.00
14023;BMP180;7086;48.116;11.580;2023-03-04T01:52:24;95608.00;;;6.10
14023;BMP180;7086;48.116;11.580;2023-03-04T01:54:56;95566.00;;;6.10
14023;BMP180;7086;48.116;11.580;2023-03-04T01:57:26;95449.00;;;6.10
14023;BMP180;7086;48.116;11.580;2023-03-04T02:00:18;95566.00;;;6.10
14023;BMP180;7086;48.116;11.580;2023-03-04T02:02:47;95565.00;;;6.10
14023;BMP180;7086;48.116;11.580;2023-03-04T02:05:17;95558.00;;;5.90
14023;BMP180;7086;48.116;11.580;2023-03-04T02:07:44;95556.00;;;6.00
14023;BMP180;7086;48.116;11.580;2023-03-04T02:10:12;95540.00;;;6.00
14023;BMP180;7086;48.116;11.580;2023-03-04T02:12:43;95548.00;;;6.00
14023;BMP180;7086;48.116;11.580;2023-03-04T02:15:16;95550.00;;;6.00
14023;BMP180;7086;48.116;11.580;2023-03-04T02:17:43;95532.00;;;6.00
14023;BMP180;7086;48.116;11.580;2023-03-04T02:20:24;95512.00;;;6.00
14023;BMP180;7086;48.116;11.580;2023-03-04T02:23:04;95541.00;;;5.70
14023;BMP180;7086;48.116;11.580;2023-03-04T02:25:42;95510.00;;;5.80
14023;BMP180;7086;48.116;11.580;2023-03-04T02:28:16;95546.00;;;5.80
14023;BMP180;7086;48.116;11.580;2023-03-04T02:30:43;95399.00;;;5.90
14023;BMP180;7086;48.116;11.580;2023-03-04T02:33:18;95559.00;;;5.80
14023;BMP180;7086;48.116;11.580;2023-03-04T02:35:53;95443.00;;;5.80
14023;BMP180;7086;48.116;11.580;2023-03-04T02:38:24;95396.00;;;5.90
14023;BMP180;7086;48.116;11.580;2023-03-04T02:41:02;95550.00;;;5.90
14023;BMP180;7086;48.116;11.580;2023-03-04T02:43:41;95422.00;;;5.80
14023;BMP180;7086;48.116;11.580;2023-03-04T02:46:26;95390.00;;;5.90
14023;BMP180;7086;48.116;11.580;2023-03-04T02:49:13;95513.00;;;5.30
14023;BMP180;7086;48.116;11.580;2023-03-04T02:51:43;95541.00;;;5.90
14023;BMP180;7086;48.116;11.580;2023-03-04T02:54:23;95556.00;;;5.90
14023;BMP180;7086;48.116;11.580;2023-03-04T02:56:58;95532.00;;;5.60
14023;BMP180;7086;48.116;11.580;2023-03-04T02:59:45;95581.00;;;5.90
14023;BMP180;7086;48.116;11.580;2023-03-04T03:02:15;95534.00;;;5.80
14023;BMP180;7086;48.116;11.580;2023-03-04T03:04:42;95480.00;;;5.80
14023;BMP180;7086;48.116;11.580;2023-03-04T03:07:13;95439.00;;;5.70
14023;BMP180;7086;48.116;11.580;2023-03-04T03:09:40;95416.00;;;5.70
14023;BMP180;7086;48.116;11.580;2023-03-04T03:12:11;95530.00;;;5.80
14023;BMP180;7086;48.116;11.580;2023-03-04T03:14:39;95528.00;;;5.80
14023;BMP180;7086;48.116;11.580;2023-03-04T03:17:18;95541.00;;;5.80
14023;BMP180;7086;48.116;11.580;2023-03-04T03:19:48;95554.00;;;5.30
14023;BMP180;7086;48.116;11.580;2023-03-04T03:22:21;95538.00;;;5.80
14023;BMP180;7086;48.116;11.580;2023-03-04T03:24:54;95515.00;;;5.70
14023;BMP180;7086;48.116;11.580;2023-03-04T03:27:23;95464.00;;;5.80
14023;BMP180;7086;48.116;11.580;2023-03-04T03:29:55;95402.00;;;5.80
14023;BMP180;7086;48.116;11.580;2023-03-04T03:32:24;95576.00;;;5.60
14023;BMP180;7086;48.116;11.580;2023-03-04T03:35:00;95570.00;;;5.20
14023;BMP180;7086;48.116;11.580;2023-03-04T03:37:31;95548.00;;;5.80
14023;BMP180;7086;48.116;11.580;2023-03-04T03:39:58;95550.00;;;5.60
14023;BMP180;7086;48.116;11.580;2023-03-04T03:42:27;95539.00;;;5.70
14023;BMP180;7086;48.116;11.580;2023-03-04T03:45:08;95477.00;;;5.40
14023;BMP180;7086;48.116;11.580;2023-03-04T03:47:48;95390.00;;;5.60
14023;BMP180;7086;48.116;11.580;2023-03-04T03:50:16;95548.00;;;5.70
14023;BMP180;7086;48.116;11.580;2023-03-04T03:52:44;95545.00;;;5.70
14023;BMP180;7086;48.116;11.580;2023-03-04T03:55:12;95543.00;;;5.70
14023;BMP180;7086;48.116;11.580;2023-03-04T03:57:39;95504.00;;;5.70
14023;BMP180;7086;48.116;11.580;2023-03-04T04:03:26;95531.00;;;5.40
14023;BMP180;7086;48.116;11.580;2023-03-04T04:06:28;95547.00;;;5.70
14023;BMP180;7086;48.116;11.580;2023-03-04T04:09:20;95525.00;;;5.60
14023;BMP180;7086;48.116;11.580;2023-03-04T04:11:48;95533.00;;;5.60
14023;BMP180;7086;48.116;11.580;2023-03-04T04:14:15;95391.00;;;5.60
14023;BMP180;7086;48.116;11.580;2023-03-04T04:16:43;95537.00;;;5.60
14023;BMP180;7086;48.116;11.580;2023-03-04T04:19:17;95501.00;;;5.60
14023;BMP180;7086;48.116;11.580;2023-03-04T04:21:46;95500.00;;;5.60
14023;BMP180;7086;48.116;11.580;2023-03-04T04:24:13;95553.00;;;5.30
14023;BMP180;7086;48.116;11.580;2023-03-04T04:26:54;95526.00;;;5.50
14023;BMP180;7086;48.116;11.580;2023-03-04T04:29:24;95536.00;;;5.50
14023;BMP180;7086;48.116;11.580;2023-03-04T04:31:56;95570.00;;;4.90
14023;BMP180;7086;48.116;11.580;2023-03-04T04:34:28;95551.00;;;5.50
14023;BMP180;7086;48.116;11.580;2023-03-04T04:36:58;95510.00;;;5.30
14023;BMP180;7086;48.116;11.580;2023-03-04T04:39:26;95524.00;;;5.50
14023;BMP180;7086;48.116;11.580;2023-03-04T04:41:54;95577.00;;;5.40
14023;BMP180;7086;48.116;11.580;2023-03-04T04:44:25;95541.00;;;5.40
14023;BMP180;7086;48.116;11.580;2023-03-04T04:46:57;95576.00;;;5.40
14023;BMP180;7086;48.116;11.580;2023-03-04T04:49:24;95475.00;;;5.40
14023;BMP180;7086;48.116;11.580;2023-03-04T04:51:53;95563.00;;;5.00
14023;BMP180;7086;48.116;11.580;2023-03-04T04:54:25;95564.00;;;4.90
14023;BMP180;7086;48.116;11.580;2023-03-04T04:56:56;95576.00;;;5.30
14023;BMP180;7086;48.116;11.580;2023-03-04T04:59:27;95536.00;;;5.30
14023;BMP180;7086;48.116;11.580;2023-03-04T05:01:56;95538.00;;;5.20
14023;BMP180;7086;48.116;11.580;2023-03-04T05:04:32;95400.00;;;4.70
14023;BMP180;7086;48.116;11.580;2023-03-04T05:07:02;95383.00;;;5.20
14023;BMP180;7086;48.116;11.580;2023-03-04T05:09:36;95559.00;;;4.80
14023;BMP180;7086;48.116;11.580;2023-03-04T05:12:03;95411.00;;;5.00
14023;BMP180;7086;48.116;11.580;2023-03-04T05:14:40;95578.00;;;5.00
14023;BMP180;7086;48.116;11.580;2023-03-04T05:17:11;95564.00;;;5.10
14023;BMP180;7086;48.116;11.580;2023-03-04T05:19:44;95469.00;;;5.10
14023;BMP180;7086;48.116;11.580;2023-03-04T05:22:16;95556.00;;;5.10
14023;BMP180;7086;48.116;11.580;2023-03-04T05:24:46;95532.00;;;5.10
14023;BMP180;7086;48.116;11.580;2023-03-04T05:27:16;95543.00;;;5.00
14023;BMP180;7086;48.116;11.580;2023-03-04T05:29:46;95534.00;;;5.00
14023;BMP180;7086;48.116;11.580;2023-03-04T05:32:14;95536.00;;;5.00
14023;BMP180;7086;48.116;11.580;2023-03-04T05:34:46;95544.00;;;5.00
14023;BMP180;7086;48.116;11.580;2023-03-04T05:37:20;95469.00;;;4.90
14023;BMP180;7086;48.116;11.580;2023-03-04T05:39:48;95546.00;;;5.00
14023;BMP180;7086;48.116;11.580;2023-03-04T05:42:16;95539.00;;;5.00
14023;BMP180;7086;48.116;11.580;2023-03-04T05:44:44;95537.00;;;5.00
14023;BMP180;7086;48.116;11.580;2023-03-04T05:47:17;95541.00;;;5.00
14023;BMP180;7086;48.116;11.580;2023-03-04T05:49:45;95392.00;;;4.90
14023;BMP180;7086;48.116;11.580;2023-03-04T05:52:13;95541.00;;;5.00
14023;BMP180;7086;48.116;11.580;2023-03-04T05:54:46;95566.00;;;5.00
14023;BMP180;7086;48.116;11.580;2023-03-04T05:57:13;95590.00;;;5.00
14023;BMP180;7086;48.116;11.580;2023-03-04T05:59:42;95371.00;;;5.00
14023;BMP180;7086;48.116;11.580;2023-03-04T06:02:10;95548.00;;;5.00
14023;BMP180;7086;48.116;11.580;2023-03-04T06:04:37;95552.00;;;4.90
14023;BMP180;7086;48.116;11.580;2023-03-04T06:07:09;95549.00;;;5.00
14023;BMP180;7086;48.116;11.580;2023-03-04T06:09:36;95565.00;;;5.00
14023;BMP180;7086;48.116;11.580;2023-03-04T06:12:20;95557.00;;;5.00
14023;BMP180;7086;48.116;11.580;2023-03-04T06:14:48;95559.00;;;5.10
14023;BMP180;7086;48.116;11.580;2023-03-04T06:17:29;95589.00;;;4.90
14023;BMP180;7086;48.116;11.580;2023-03-04T06:20:14;95470.00;;;5.10
14023;BMP180;7086;48.116;11.580;2023-03-04T06:23:06;95417.00;;;4.90
14023;BMP180;7086;48.116;11.580;2023-03-04T06:25:41;95584.00;;;5.00
14023;BMP180;7086;48.116;11.580;2023-03-04T06:28:13;95380.00;;;5.20
14023;BMP180;7086;48.116;11.580;2023-03-04T06:30:43;95469.00;;;5.30
14023;BMP180;7086;48.116;11.580;2023-03-04T06:33:20;95577.00;;;5.30
14023;BMP180;7086;48.116;11.580;2023-03-04T06:35:52;95588.00;;;5.40
14023;BMP180;7086;48.116;11.580;2023-03-04T06:38:19;95547.00;;;5.30
14023;BMP180;7086;48.116;11.580;2023-03-04T06:40:48;95586.00;;;5.50
14023;BMP180;7086;48.116;11.580;2023-03-04T06:43:18;95575.00;;;5.10
14023;BMP180;7086;48.116;11.580;2023-03-04T06:45:46;95559.00;;;5.60
14023;BMP180;7086;48.116;11.580;2023-03-04T06:48:13;95528.00;;;5.70
14023;BMP180;7086;48.116;11.580;2023-03-04T06:50:41;95580.00;;;5.60
14023;BMP180;7086;48.116;11.580;2023-03-04T06:53:08;95582.00;;;5.80
14023;BMP180;7086;48.116;11.580;2023-03-04T06:55:36;95588.00;;;5.90
14023;BMP180;7086;48.116;11.580;2023-03-04T06:58:04;95584.00;;;6.00
14023;BMP180;7086;48.116;11.580;2023-03-04T07:00:33;95566.00;;;6.00
14023;BMP180;7086;48.116;11.580;2023-03-04T07:03:00;95521.00;;;6.10
14023;BMP180;7086;48.116;11.580;2023-03-04T07:05:28;95585.00;;;6.20
14023;BMP180;7086;48.116;11.580;2023-03-04T07:07:56;95586.00;;;6.30
14023;BMP180;7086;48.116;11.580;2023-03-04T07:10:24;95447.00;;;6.40
14023;BMP180;7086;48.116;11.580;2023-03-04T07:12:51;95587.00;;;6.40
14023;BMP180;7086;48.116;11.580;2023-03-04T07:15:19;95594.00;;;6.60
14023;BMP180;7086;48.116;11.580;2023-03-04T07:17:52;95608.00;;;6.80
14023;BMP180;7086;48.116;11.580;2023-03-04T07:20:20;95601.00;;;6.90
14023;BMP180;7086;48.116;11.580;2023-03-04T07:22:48;95527.00;;;7.10
14023;BMP180;7086;48.116;11.580;2023-03-04T07:25:16;95598.00;;;7.20
14023;BMP180;7086;48.116;11.580;2023-03-04T07:27:44;95607.00;;;7.30
14023;BMP180;7086;48.116;11.580;2023-03-04T07:30:12;95607.00;;;7.40
14023;BMP180;7086;48.116;11.580;2023-03-04T07:32:40;95641.00;;;7.60
14023;BMP180;7086;48.116;11.580;2023-03-04T07:35:14;95652.00;;;7.70
14023;BMP180;7086;48.116;11.580;2023-03-04T07:37:43;95487.00;;;7.90
14023;BMP180;7086;48.116;11.580;2023-03-04T07:40:12;95621.00;;;8.00
14023;BMP180;7086;48.116;11.580;2023-03-04T07:42:39;95605.00;;;8.20
14023;BMP180;7086;48.116;11.580;2023-03-04T07:45:09;95560.00;;;7.90
14023;BMP180;7086;48.116;11.580;2023-03-04T07:47:40;95609.00;;;8.30
14023;BMP180;7086;48.116;11.580;2023-03-04T07:50:11;95556.00;;;8.10
14023;BMP180;7086;48.116;11.580;2023-03-04T07:52:39;95616.00;;;8.80
14023;BMP180;7086;48.116;11.580;2023-03-04T07:55:08;95621.00;;;9.00
14023;BMP180;7086;48.116;11.580;2023-03-04T07:57:38;95642.00;;;9.30
14023;BMP180;7086;48.116;11.580;2023-03-04T08:00:11;95623.00;;;9.70
14023;BMP180;7086;48.116;11.580;2023-03-04T08:02:39;95627.00;;;10.10
14023;BMP180;7086;48.116;11.580;2023-03-04T08:05:08;95620.00;;;10.50
14023;BMP180;7086;48.116;11.580;2023-03-04T08:07:37;95603.00;;;11.00
14023;BMP180;7086;48.116;11.580;2023-03-04T08:10:08;95589.00;;;11.40
14023;BMP180;7086;48.116;11.580;2023-03-04T08:12:36;95597.00;;;11.70
14023;BMP180;7086;48.116;11.580;2023-03-04T08:15:05;95641.00;;;12.00
14023;BMP180;7086;48.116;11.580;2023-03-04T08:17:35;95643.00;;;12.30
14023;BMP180;7086;48.116;11.580;2023-03-04T08:20:10;95636.00;;;12.50
14023;BMP180;7086;48.116;11.580;2023-03-04T08:22:40;95671.00;;;12.80
14023;BMP180;7086;48.116;11.580;2023-03-04T08:25:12;95634.00;;;13.00
14023;BMP180;7086;48.116;11.580;2023-03-04T08:27:40;95632.00;;;13.40
14023;BMP180;7086;48.116;11.580;2023-03-04T08:30:11;95597.00;;;13.60
14023;BMP180;7086;48.116;11.580;2023-03-04T08:32:53;95532.00;;;13.90
14023;BMP180;7086;48.116;11.580;2023-03-04T08:35:39;95631.00;;;14.20
14023;BMP180;7086;48.116;11.580;2023-03-04T08:38:10;95607.00;;;14.30
14023;BMP180;7086;48.116;11.580;2023-03-04T08:40:39;95640.00;;;14.70
14023;BMP180;7086;48.116;11.580;2023-03-04T08:43:14;95593.00;;;14.90
14023;BMP180;7086;48.116;11.580;2023-03-04T08:45:55;95629.00;;;15.20
14023;BMP180;7086;48.116;11.580;2023-03-04T08:48:37;95550.00;;;15.40
14023;BMP180;7086;48.116;11.580;2023-03-04T08:51:10;95525.00;;;15.80
14023;BMP180;7086;48.116;11.580;2023-03-04T08:53:41;95602.00;;;16.20
14023;BMP180;7086;48.116;11.580;2023-03-04T08:56:10;95633.00;;;16.40
14023;BMP180;7086;48.116;11.580;2023-03-04T08:58:39;95566.00;;;16.20
14023;BMP180;7086;48.116;11.580;2023-03-04T09:01:20;95623.00;;;16.90
14023;BMP180;7086;48.116;11.580;2023-03-04T09:03:58;95597.00;;;17.20
14023;BMP180;7086;48.116;11.580;2023-03-04T09:06:26;95557.00;;;17.40
14023;BMP180;7086;48.116;11.580;2023-03-04T09:08:58;95623.00;;;17.70
14023;BMP180;7086;48.116;11.580;2023-03-04T09:11:27;95638.00;;;18.00
14023;BMP180;7086;48.116;11.580;2023-03-04T09:13:56;95612.00;;;18.30
14023;BMP180;7086;48.116;11.580;2023-03-04T09:16:29;95591.00;;;18.50
14023;BMP180;7086;48.116;11.580;2023-03-04T09:19:10;95616.00;;;18.70
14023;BMP180;7086;48.116;11.580;2023-03-04T09:21:41;95605.00;;;18.90
14023;BMP180;7086;48.116;11.580;2023-03-04T09:24:33;95619.00;;;19.00
14023;BMP180;7086;48.116;11.580;2023-03-04T09:27:17;95629.00;;;19.30
14023;BMP180;7086;48.116;11.580;2023-03-04T09:29:59;95576.00;;;19.60
14023;BMP180;7086;48.116;11.580;2023-03-04T09:32:41;95592.00;;;19.70
14023;BMP180;7086;48.116;11.580;2023-03-04T09:35:23;95609.00;;;20.10
14023;BMP180;7086;48.116;11.580;2023-03-04T09:37:50;95618.00;;;20.20
14023;BMP180;7086;48.116;11.580;2023-03-04T10:18:44;95615.00;;;20.50
14023;BMP180;7086;48.116;11.580;2023-03-04T10:21:52;95604.00;;;20.50
14023;BMP180;7086;48.116;11.580;2023-03-04T10:24:28;95514.00;;;20.60
14023;BMP180;7086;48.116;11.580;2023-03-04T10:27:25;95596.00;;;20.70
14023;BMP180;7086;48.116;11.580;2023-03-04T10:30:35;95615.00;;;20.70
14023;BMP180;7086;48.116;11.580;2023-03-04T11:23:13;95586.00;;;21.20
14023;BMP180;7086;48.116;11.580;2023-03-04T11:37:41;95578.00;;;20.30
14023;BMP180;7086;48.116;11.580;2023-03-04T11:41:11;95583.00;;;19.90
14023;BMP180;7086;48.116;11.580;2023-03-04T11:44:48;95573.00;;;19.20
14023;BMP180;7086;48.116;11.580;2023-03-04T11:52:19;95525.00;;;18.40
14023;BMP180;7086;48.116;11.580;2023-03-04T12:03:23;95482.00;;;17.10
14023;BMP180;7086;48.116;11.580;2023-03-04T12:07:04;95429.00;;;17.00
14023;BMP180;7086;48.116;11.580;2023-03-04T12:12:01;95567.00;;;16.90
14023;BMP180;7086;48.116;11.580;2023-03-04T12:14:42;95527.00;;;16.70
14023;BMP180;7086;48.116;11.580;2023-03-04T12:22:24;95440.00;;;16.00
14023;BMP180;7086;48.116;11.580;2023-03-04T12:29:17;95446.00;;;15.50
14023;BMP180;7086;48.116;11.580;2023-03-04T12:32:35;95422.00;;;14.90
14023;BMP180;7086;48.116;11.580;2023-03-04T12:35:55;95443.00;;;15.00
14023;BMP180;7086;48.116;11.580;2023-03-04T12:39:14;95435.00;;;14.40
14023;BMP180;7086;48.116;11.580;2023-03-04T12:42:27;95512.00;;;14.60
14023;BMP180;7086;48.116;11.580;2023-03-04T12:45:26;95510.00;;;14.50
14023;BMP180;7086;48.116;11.580;2023-03-04T12:48:30;95503.00;;;14.40
14023;BMP180;7086;48.116;11.580;2023-03-04T12:51:46;95527.00;;;14.20
14023;BMP180;7086;48.116;11.580;2023-03-04T12:58:28;95471.00;;;14.20
14023;BMP180;7086;48.116;11.580;2023-03-04T13:09:25;95479.00;;;14.20
14023;BMP180;7086;48.116;11.580;2023-03-04T13:12:16;95501.00;;;13.90
14023;BMP180;7086;48.116;11.580;2023-03-04T14:26:45;95420.00;;;12.40
14023;BMP180;7086;48.116;11.580;2023-03-04T14:29:57;95413.00;;;12.40
14023;BMP180;7086;48.116;11.580;2023-03-04T14:32:44;95431.00;;;11.90
14023;BMP180;7086;48.116;11.580;2023-03-04T14:35:30;95428.00;;;12.10
14023;BMP180;7086;48.116;11.580;2023-03-04T14:38:41;95448.00;;;12.10
14023;BMP180;7086;48.116;11.580;2023-03-04T14:41:28;95351.00;;;12.00
14023;BMP180;7086;48.116;11.580;2023-03-04T14:53:16;95370.00;;;11.60
14023;BMP180;7086;48.116;11.580;2023-03-04T14:56:02;95400.00;;;11.50
14023;BMP180;7086;48.116;11.580;2023-03-04T14:59:02;95440.00;;;11.30
14023;BMP180;7086;48.116;11.580;2023-03-04T15:01:43;95431.00;;;11.30
14023;BMP180;7086;48.116;11.580;2023-03-04T15:04:26;95341.00;;;11.20
14023;BMP180;7086;48.116;11.580;2023-03-04T15:07:23;95395.00;;;11.10
14023;BMP180;7086;48.116;11.580;2023-03-04T15:29:56;95451.00;;;10.10
14023;BMP180;7086;48.116;11.580;2023-03-04T15:33:14;95425.00;;;9.90
14023;BMP180;7086;48.116;11.580;2023-03-04T15:36:16;95341.00;;;9.80
14023;BMP180;7086;48.116;11.580;2023-03-04T15:38:53;95434.00;;;9.70
14023;BMP180;7086;48.116;11.580;2023-03-04T15:41:35;95338.00;;;9.60
14023;BMP180;7086;48.116;11.580;2023-03-04T15:44:24;95302.00;;;9.60
14023;BMP180;7086;48.116;11.580;2023-03-04T15:47:42;95302.00;;;9.50
14023;BMP180;7086;48.116;11.580;2023-03-04T18:01:20;95444.00;;;6.40
14023;BMP180;7086;48.116;11.580;2023-03-04T18:04:24;95366.00;;;6.20
14023;BMP180;7086;48.116;11.580;2023-03-04T18:07:33;95452.00;;;6.30
14023;BMP180;7086;48.116;11.580;2023-03-04T18:10:42;95543.00;;;6.20
14023;BMP180;7086;48.116;11.580;2023-03-04T18:17:07;95579.00;;;6.20
14023;BMP180;7086;48.116;11.580;2023-03-04T18:20:10;95399.00;;;6.10
14023;BMP180;7086;48.116;11.580;2023-03-04T18:26:36;95564.00;;;6.20
14023;BMP180;7086;48.116;11.580;2023-03-04T18:29:46;95511.00;;;6.20
14023;BMP180;7086;48.116;11.580;2023-03-04T18:53:46;95588.00;;;6.10
14023;BMP180;7086;48.116;11.580;2023-03-04T19:07:30;95544.00;;;6.00
14023;BMP180;7086;48.116;11.580;2023-03-04T19:10:43;95497.00;;;6.10
14023;BMP180;7086;48.116;11.580;2023-03-04T19:13:26;95577.00;;;6.20
14023;BMP180;7086;48.116;11.580;2023-03-04T19:16:28;95559.00;;;5.90
14023;BMP180;7086;48.116;11.580;2023-03-04T19:19:16;95579.00;;;6.10
14023;BMP180;7086;48.116;11.580;2023-03-04T19:21:48;95585.00;;;6.20
14023;BMP180;7086;48.116;11.580;2023-03-04T19:35:47;95589.00;;;6.10
14023;BMP180;7086;48.116;11.580;2023-03-04T19:38:34;95605.00;;;6.20
14023;BMP180;7086;48.116;11.580;2023-03-04T19:41:14;95595.00;;;6.20
14023;BMP180;7086;48.116;11.580;2023-03-04T19:44:10;95507.00;;;6.20
14023;BMP180;7086;48.116;11.580;2023-03-04T19:46:44;95586.00;;;6.20
14023;BMP180;7086;48.116;11.580;2023-03-04T19:49:26;95479.00;;;6.20
14023;BMP180;7086;48.116;11.580;2023-03-04T19:59:51;95501.00;;;6.10
14023;BMP180;7086;48.116;11.580;2023-03-04T20:02:38;95567.00;;;6.10
14023;BMP180;7086;48.116;11.580;2023-03-04T20:05:25;95591.00;;;6.10
14023;BMP180;7086;48.116;11.580;2023-03-04T20:08:11;95584.00;;;6.10
14023;BMP180;7086;48.116;11.580;2023-03-04T22:33:48;95343.00;;;5.80
14023;BMP180;7086;48.116;11.580;2023-03-04T22:36:42;95396.00;;;5.80
14023;BMP180;7086;48.116;11.580;2023-03-04T22:39:15;95419.00;;;5.90
14023;BMP180;7086;48.116;11.580;2023-03-04T22:41:56;95501.00;;;5.80
14023;BMP180;7086;48.116;11.580;2023-03-04T22:44:33;95399.00;;;6.00
14023;BMP180;7086;48.116;11.580;2023-03-04T22:47:38;95327.00;;;5.90
